sensor_id;sensor_type;location;lat;lon;timestamp;P1;durP1;ratioP1;P2;durP2;ratioP2
48791;SDS011;34587;48.816;9.420;2024-01-07T00:01:55;19.80;;;10.48;;
48791;SDS011;34587;48.816;9.420;2024-01-07T00:04:20;19.35;;;10.45;;
48791;SDS011;34587;48.816;9.420;2024-01-07T00:06:46;21.95;;;10.95;;
48791;SDS011;34587;48.816;9.420;2024-01-07T00:09:12;21.15;;;11.05;;
48791;SDS011;34587;48.816;9.420;2024-01-07T00:11:40;24.08;;;11.70;;
48791;SDS011;34587;48.816;9.420;2024-01-07T00:14:05;25.65;;;11.90;;
48791;SDS011;34587;48.816;9.420;2024-01-07T00:16:31;23.45;;;11.20;;
48791;SDS011;34587;48.816;9.420;2024-01-07T00:18:56;23.67;;;11.23;;
48791;SDS011;34587;48.816;9.420;2024-01-07T00:21:21;19.33;;;10.75;;
48791;SDS011;34587;48.816;9.420;2024-01-07T00:23:46;20.92;;;10.65;;
48791;SDS011;34587;48.816;9.420;2024-01-07T00:26:12;24.27;;;11.02;;
48791;SDS011;34587;48.816;9.420;2024-01-07T00:28:37;22.58;;;11.48;;
48791;SDS011;34587;48.816;9.420;2024-01-07T00:31:02;21.48;;;12.07;;
48791;SDS011;34587;48.816;9.420;2024-01-07T00:33:29;23.30;;;10.75;;
48791;SDS011;34587;48.816;9.420;2024-01-07T00:35:56;23.15;;;12.05;;
48791;SDS011;34587;48.816;9.420;2024-01-07T00:38:21;22.00;;;10.85;;
48791;SDS011;34587;48.816;9.420;2024-01-07T00:40:46;27.02;;;11.82;;
48791;SDS011;34587;48.816;9.420;2024-01-07T00:43:12;25.88;;;11.60;;
48791;SDS011;34587;48.816;9.420;2024-01-07T00:45:37;27.30;;;11.60;;
48791;SDS011;34587;48.816;9.420;2024-01-07T00:48:02;20.42;;;12.00;;
48791;SDS011;34587;48.816;9.420;2024-01-07T00:50:28;27.67;;;11.88;;
48791;SDS011;34587;48.816;9.420;2024-01-07T00:52:53;23.80;;;11.57;;
48791;SDS011;34587;48.816;9.420;2024-01-07T00:55:18;25.08;;;12.13;;
48791;SDS011;34587;48.816;9.420;2024-01-07T00:57:44;23.95;;;11.73;;
48791;SDS011;34587;48.816;9.420;2024-01-07T05:45:28;10.90;;;7.15;;
48791;SDS011;34587;48.816;9.420;2024-01-07T05:47:53;13.07;;;7.43;;
48791;SDS011;34587;48.816;9.420;2024-01-07T05:50:19;10.50;;;7.25;;
48791;SDS011;34587;48.816;9.420;2024-01-07T05:52:45;9.15;;;7.05;;
48791;SDS011;34587;48.816;9.420;2024-01-07T05:55:10;9.32;;;7.03;;
48791;SDS011;34587;48.816;9.420;2024-01-07T05:57:36;11.50;;;6.40;;
48791;SDS011;34587;48.816;9.420;2024-01-07T06:00:01;9.50;;;6.53;;
48791;SDS011;34587;48.816;9.420;2024-01-07T06:02:27;12.35;;;7.70;;
48791;SDS011;34587;48.816;9.420;2024-01-07T06:04:52;10.73;;;7.10;;
48791;SDS011;34587;48.816;9.420;2024-01-07T06:07:17;11.50;;;7.22;;
48791;SDS011;34587;48.816;9.420;2024-01-07T06:09:42;11.20;;;6.85;;
48791;SDS011;34587;48.816;9.420;2024-01-07T06:12:08;10.48;;;7.22;;
48791;SDS011;34587;48.816;9.420;2024-01-07T06:14:33;10.80;;;6.75;;
48791;SDS011;34587;48.816;9.420;2024-01-07T06:16:58;12.35;;;7.43;;
48791;SDS011;34587;48.816;9.420;2024-01-07T06:19:24;10.75;;;6.85;;
48791;SDS011;34587;48.816;9.420;2024-01-07T06:21:49;11.90;;;7.28;;
48791;SDS011;34587;48.816;9.420;2024-01-07T06:24:14;12.10;;;7.30;;
48791;SDS011;34587;48.816;9.420;2024-01-07T06:26:40;15.02;;;7.18;;
48791;SDS011;34587;48.816;9.420;2024-01-07T06:29:05;10.18;;;6.85;;
48791;SDS011;34587;48.816;9.420;2024-01-07T06:31:31;11.60;;;6.85;;
48791;SDS011;34587;48.816;9.420;2024-01-07T06:33:56;10.77;;;7.30;;
48791;SDS011;34587;48.816;9.420;2024-01-07T06:36:22;15.57;;;7.63;;
48791;SDS011;34587;48.816;9.420;2024-01-07T06:38:47;14.38;;;7.28;;
48791;SDS011;34587;48.816;9.420;2024-01-07T06:41:13;12.45;;;7.20;;
48791;SDS011;34587;48.816;9.420;2024-01-07T06:43:39;17.52;;;7.75;;
48791;SDS011;34587;48.816;9.420;2024-01-07T06:46:04;12.25;;;6.75;;
48791;SDS011;34587;48.816;9.420;2024-01-07T06:48:30;16.33;;;6.97;;
48791;SDS011;34587;48.816;9.420;2024-01-07T06:50:55;12.95;;;7.63;;
48791;SDS011;34587;48.816;9.420;2024-01-07T06:53:21;12.25;;;7.28;;
48791;SDS011;34587;48.816;9.420;2024-01-07T06:55:46;15.93;;;8.35;;
48791;SDS011;34587;48.816;9.420;2024-01-07T06:58:12;12.60;;;7.57;;
48791;SDS011;34587;48.816;9.420;2024-01-07T07:00:37;10.23;;;6.78;;
48791;SDS011;34587;48.816;9.420;2024-01-07T07:03:02;12.90;;;7.57;;
48791;SDS011;34587;48.816;9.420;2024-01-07T07:05:27;10.98;;;7.07;;
48791;SDS011;34587;48.816;9.420;2024-01-07T07:07:53;18.02;;;7.93;;
48791;SDS011;34587;48.816;9.420;2024-01-07T07:10:18;10.13;;;6.32;;
48791;SDS011;34587;48.816;9.420;2024-01-07T07:12:43;13.90;;;7.72;;
48791;SDS011;34587;48.816;9.420;2024-01-07T07:15:09;12.00;;;7.13;;
48791;SDS011;34587;48.816;9.420;2024-01-07T07:17:38;12.60;;;7.63;;
48791;SDS011;34587;48.816;9.420;2024-01-07T07:20:04;11.15;;;6.93;;
48791;SDS011;34587;48.816;9.420;2024-01-07T07:22:30;13.30;;;6.82;;
48791;SDS011;34587;48.816;9.420;2024-01-07T07:24:55;9.52;;;6.50;;
48791;SDS011;34587;48.816;9.420;2024-01-07T07:27:21;9.38;;;6.68;;
48791;SDS011;34587;48.816;9.420;2024-01-07T07:29:46;13.43;;;7.68;;
48791;SDS011;34587;48.816;9.420;2024-01-07T07:32:12;11.50;;;7.63;;
48791;SDS011;34587;48.816;9.420;2024-01-07T07:34:37;14.65;;;7.35;;
48791;SDS011;34587;48.816;9.420;2024-01-07T07:37:02;11.32;;;6.90;;
48791;SDS011;34587;48.816;9.420;2024-01-07T07:39:28;14.40;;;7.28;;
48791;SDS011;34587;48.816;9.420;2024-01-07T07:41:53;8.45;;;5.40;;
48791;SDS011;34587;48.816;9.420;2024-01-07T07:44:18;10.07;;;6.30;;
48791;SDS011;34587;48.816;9.420;2024-01-07T07:46:44;7.70;;;4.90;;
48791;SDS011;34587;48.816;9.420;2024-01-07T07:49:09;9.30;;;5.50;;
48791;SDS011;34587;48.816;9.420;2024-01-07T07:51:36;7.30;;;5.05;;
48791;SDS011;34587;48.816;9.420;2024-01-07T07:54:01;12.85;;;5.47;;
48791;SDS011;34587;48.816;9.420;2024-01-07T07:56:27;9.25;;;4.90;;
48791;SDS011;34587;48.816;9.420;2024-01-07T07:58:53;8.68;;;4.68;;
48791;SDS011;34587;48.816;9.420;2024-01-07T08:01:19;8.85;;;4.78;;
48791;SDS011;34587;48.816;9.420;2024-01-07T08:03:44;11.88;;;4.88;;
48791;SDS011;34587;48.816;9.420;2024-01-07T08:06:09;9.93;;;4.43;;
48791;SDS011;34587;48.816;9.420;2024-01-07T08:08:35;6.75;;;4.65;;
48791;SDS011;34587;48.816;9.420;2024-01-07T08:11:00;10.57;;;5.03;;
48791;SDS011;34587;48.816;9.420;2024-01-07T08:13:25;8.38;;;4.75;;
48791;SDS011;34587;48.816;9.420;2024-01-07T08:15:51;7.35;;;4.13;;
48791;SDS011;34587;48.816;9.420;2024-01-07T08:18:16;7.30;;;4.88;;
48791;SDS011;34587;48.816;9.420;2024-01-07T08:20:41;7.05;;;4.35;;
48791;SDS011;34587;48.816;9.420;2024-01-07T08:23:06;9.73;;;4.50;;
48791;SDS011;34587;48.816;9.420;2024-01-07T08:25:32;5.93;;;3.90;;
48791;SDS011;34587;48.816;9.420;2024-01-07T08:27:57;5.43;;;3.63;;
48791;SDS011;34587;48.816;9.420;2024-01-07T08:30:22;6.35;;;3.90;;
48791;SDS011;34587;48.816;9.420;2024-01-07T08:32:48;9.10;;;4.65;;
48791;SDS011;34587;48.816;9.420;2024-01-07T08:35:14;13.90;;;5.68;;
48791;SDS011;34587;48.816;9.420;2024-01-07T08:37:39;12.43;;;5.78;;
48791;SDS011;34587;48.816;9.420;2024-01-07T08:40:04;9.95;;;6.00;;
48791;SDS011;34587;48.816;9.420;2024-01-07T08:42:30;10.25;;;4.80;;
48791;SDS011;34587;48.816;9.420;2024-01-07T08:44:56;7.50;;;5.38;;
48791;SDS011;34587;48.816;9.420;2024-01-07T08:47:21;8.30;;;4.53;;
48791;SDS011;34587;48.816;9.420;2024-01-07T08:49:46;18.25;;;7.43;;
48791;SDS011;34587;48.816;9.420;2024-01-07T08:52:12;7.93;;;4.35;;
48791;SDS011;34587;48.816;9.420;2024-01-07T08:54:37;7.40;;;4.05;;
48791;SDS011;34587;48.816;9.420;2024-01-07T08:57:02;9.15;;;4.25;;
48791;SDS011;34587;48.816;9.420;2024-01-07T08:59:28;5.47;;;4.10;;
48791;SDS011;34587;48.816;9.420;2024-01-07T09:01:53;5.72;;;3.45;;
48791;SDS011;34587;48.816;9.420;2024-01-07T09:04:18;8.60;;;4.45;;
48791;SDS011;34587;48.816;9.420;2024-01-07T09:06:44;22.25;;;8.70;;
48791;SDS011;34587;48.816;9.420;2024-01-07T09:09:09;5.45;;;3.53;;
48791;SDS011;34587;48.816;9.420;2024-01-07T09:11:35;15.57;;;5.45;;
48791;SDS011;34587;48.816;9.420;2024-01-07T09:14:01;11.20;;;4.20;;
48791;SDS011;34587;48.816;9.420;2024-01-07T09:16:28;10.10;;;5.50;;
48791;SDS011;34587;48.816;9.420;2024-01-07T09:18:53;9.30;;;5.10;;
48791;SDS011;34587;48.816;9.420;2024-01-07T09:21:19;9.82;;;5.50;;
48791;SDS011;34587;48.816;9.420;2024-01-07T09:23:44;7.22;;;4.05;;
48791;SDS011;34587;48.816;9.420;2024-01-07T09:26:09;5.90;;;3.65;;
48791;SDS011;34587;48.816;9.420;2024-01-07T09:28:35;6.65;;;3.72;;
48791;SDS011;34587;48.816;9.420;2024-01-07T09:31:00;8.70;;;4.68;;
48791;SDS011;34587;48.816;9.420;2024-01-07T09:33:25;6.43;;;3.63;;
48791;SDS011;34587;48.816;9.420;2024-01-07T09:35:51;10.07;;;5.72;;
48791;SDS011;34587;48.816;9.420;2024-01-07T09:38:16;8.63;;;5.32;;
48791;SDS011;34587;48.816;9.420;2024-01-07T09:40:41;8.75;;;5.38;;
48791;SDS011;34587;48.816;9.420;2024-01-07T09:43:07;4.50;;;3.85;;
48791;SDS011;34587;48.816;9.420;2024-01-07T09:45:33;17.73;;;7.07;;
48791;SDS011;34587;48.816;9.420;2024-01-07T09:48:01;10.05;;;5.70;;
48791;SDS011;34587;48.816;9.420;2024-01-07T09:50:27;11.52;;;4.80;;
48791;SDS011;34587;48.816;9.420;2024-01-07T09:52:52;11.07;;;4.57;;
48791;SDS011;34587;48.816;9.420;2024-01-07T09:55:26;5.68;;;4.25;;
48791;SDS011;34587;48.816;9.420;2024-01-07T09:57:53;5.55;;;3.97;;
48791;SDS011;34587;48.816;9.420;2024-01-07T10:00:19;8.20;;;5.10;;
48791;SDS011;34587;48.816;9.420;2024-01-07T10:02:45;10.75;;;5.15;;
48791;SDS011;34587;48.816;9.420;2024-01-07T10:05:10;5.88;;;4.13;;
48791;SDS011;34587;48.816;9.420;2024-01-07T10:07:35;8.60;;;4.75;;
48791;SDS011;34587;48.816;9.420;2024-01-07T10:10:16;8.32;;;5.25;;
48791;SDS011;34587;48.816;9.420;2024-01-07T10:12:45;8.68;;;4.50;;
48791;SDS011;34587;48.816;9.420;2024-01-07T10:15:11;8.57;;;4.55;;
48791;SDS011;34587;48.816;9.420;2024-01-07T10:17:37;11.68;;;5.75;;
48791;SDS011;34587;48.816;9.420;2024-01-07T10:20:04;8.70;;;4.97;;
48791;SDS011;34587;48.816;9.420;2024-01-07T10:22:30;11.27;;;5.20;;
48791;SDS011;34587;48.816;9.420;2024-01-07T10:24:56;7.93;;;4.25;;
48791;SDS011;34587;48.816;9.420;2024-01-07T10:27:22;7.85;;;4.95;;
48791;SDS011;34587;48.816;9.420;2024-01-07T10:29:48;10.48;;;5.20;;
48791;SDS011;34587;48.816;9.420;2024-01-07T10:32:17;8.70;;;4.50;;
48791;SDS011;34587;48.816;9.420;2024-01-07T10:34:44;8.32;;;4.25;;
48791;SDS011;34587;48.816;9.420;2024-01-07T10:37:12;9.23;;;4.97;;
48791;SDS011;34587;48.816;9.420;2024-01-07T10:39:37;13.35;;;5.95;;
48791;SDS011;34587;48.816;9.420;2024-01-07T10:42:03;9.88;;;5.55;;
48791;SDS011;34587;48.816;9.420;2024-01-07T10:44:30;13.30;;;5.55;;
48791;SDS011;34587;48.816;9.420;2024-01-07T10:46:57;8.50;;;5.07;;
48791;SDS011;34587;48.816;9.420;2024-01-07T10:49:23;7.43;;;4.10;;
48791;SDS011;34587;48.816;9.420;2024-01-07T10:52:01;7.95;;;4.57;;
48791;SDS011;34587;48.816;9.420;2024-01-07T10:54:32;7.65;;;5.00;;
48791;SDS011;34587;48.816;9.420;2024-01-07T10:57:09;9.00;;;4.85;;
48791;SDS011;34587;48.816;9.420;2024-01-07T10:59:41;6.72;;;4.38;;
48791;SDS011;34587;48.816;9.420;2024-01-07T11:02:08;15.80;;;4.47;;
48791;SDS011;34587;48.816;9.420;2024-01-07T11:04:38;8.50;;;4.65;;
48791;SDS011;34587;48.816;9.420;2024-01-07T11:07:23;9.85;;;4.43;;
48791;SDS011;34587;48.816;9.420;2024-01-07T11:12:52;11.70;;;5.18;;
48791;SDS011;34587;48.816;9.420;2024-01-07T11:18:18;9.57;;;4.43;;
48791;SDS011;34587;48.816;9.420;2024-01-07T11:20:44;8.40;;;4.63;;
48791;SDS011;34587;48.816;9.420;2024-01-07T11:25:54;8.18;;;4.68;;
48791;SDS011;34587;48.816;9.420;2024-01-07T11:28:24;8.93;;;4.35;;
48791;SDS011;34587;48.816;9.420;2024-01-07T11:31:15;6.05;;;4.00;;
48791;SDS011;34587;48.816;9.420;2024-01-07T11:33:41;7.65;;;4.97;;
48791;SDS011;34587;48.816;9.420;2024-01-07T11:36:10;10.02;;;5.90;;
48791;SDS011;34587;48.816;9.420;2024-01-07T11:38:36;12.18;;;6.55;;
48791;SDS011;34587;48.816;9.420;2024-01-07T11:41:05;11.20;;;4.78;;
48791;SDS011;34587;48.816;9.420;2024-01-07T11:43:31;10.10;;;5.03;;
48791;SDS011;34587;48.816;9.420;2024-01-07T11:45:58;8.50;;;4.43;;
48791;SDS011;34587;48.816;9.420;2024-01-07T11:48:24;7.72;;;4.60;;
48791;SDS011;34587;48.816;9.420;2024-01-07T11:50:49;4.60;;;3.78;;
48791;SDS011;34587;48.816;9.420;2024-01-07T11:53:15;5.07;;;4.13;;
48791;SDS011;34587;48.816;9.420;2024-01-07T11:55:40;7.70;;;4.68;;
48791;SDS011;34587;48.816;9.420;2024-01-07T11:58:06;9.07;;;5.50;;
48791;SDS011;34587;48.816;9.420;2024-01-07T12:00:34;9.77;;;4.95;;
48791;SDS011;34587;48.816;9.420;2024-01-07T12:03:00;6.70;;;4.07;;
48791;SDS011;34587;48.816;9.420;2024-01-07T12:05:26;5.43;;;3.60;;
48791;SDS011;34587;48.816;9.420;2024-01-07T12:07:52;5.50;;;4.03;;
48791;SDS011;34587;48.816;9.420;2024-01-07T12:10:17;7.15;;;3.90;;
48791;SDS011;34587;48.816;9.420;2024-01-07T12:12:43;8.27;;;4.22;;
48791;SDS011;34587;48.816;9.420;2024-01-07T12:15:09;5.78;;;4.07;;
48791;SDS011;34587;48.816;9.420;2024-01-07T12:17:38;5.93;;;4.07;;
48791;SDS011;34587;48.816;9.420;2024-01-07T12:20:04;9.88;;;4.05;;
48791;SDS011;34587;48.816;9.420;2024-01-07T12:22:30;4.63;;;3.72;;
48791;SDS011;34587;48.816;9.420;2024-01-07T12:25:05;7.40;;;4.50;;
48791;SDS011;34587;48.816;9.420;2024-01-07T12:27:31;8.82;;;4.72;;
48791;SDS011;34587;48.816;9.420;2024-01-07T12:29:59;7.32;;;4.45;;
48791;SDS011;34587;48.816;9.420;2024-01-07T12:32:28;6.30;;;4.50;;
48791;SDS011;34587;48.816;9.420;2024-01-07T12:37:22;7.47;;;4.53;;
48791;SDS011;34587;48.816;9.420;2024-01-07T12:39:47;6.50;;;4.38;;
48791;SDS011;34587;48.816;9.420;2024-01-07T12:42:12;6.88;;;4.75;;
48791;SDS011;34587;48.816;9.420;2024-01-07T12:44:38;5.80;;;4.10;;
48791;SDS011;34587;48.816;9.420;2024-01-07T12:47:04;6.38;;;4.10;;
48791;SDS011;34587;48.816;9.420;2024-01-07T12:49:30;6.78;;;4.20;;
48791;SDS011;34587;48.816;9.420;2024-01-07T12:51:55;8.55;;;4.47;;
48791;SDS011;34587;48.816;9.420;2024-01-07T12:54:21;9.02;;;3.95;;
48791;SDS011;34587;48.816;9.420;2024-01-07T12:56:48;6.28;;;4.30;;
48791;SDS011;34587;48.816;9.420;2024-01-07T12:59:13;8.38;;;4.22;;
48791;SDS011;34587;48.816;9.420;2024-01-07T13:01:38;7.40;;;4.55;;
48791;SDS011;34587;48.816;9.420;2024-01-07T13:04:04;8.88;;;4.90;;
48791;SDS011;34587;48.816;9.420;2024-01-07T13:06:30;7.95;;;4.40;;
48791;SDS011;34587;48.816;9.420;2024-01-07T13:08:55;8.68;;;4.90;;
48791;SDS011;34587;48.816;9.420;2024-01-07T13:11:20;10.93;;;5.55;;
48791;SDS011;34587;48.816;9.420;2024-01-07T13:13:46;11.00;;;6.50;;
48791;SDS011;34587;48.816;9.420;2024-01-07T13:16:13;9.13;;;5.55;;
48791;SDS011;34587;48.816;9.420;2024-01-07T13:18:38;10.90;;;6.30;;
48791;SDS011;34587;48.816;9.420;2024-01-07T13:21:03;13.85;;;6.32;;
48791;SDS011;34587;48.816;9.420;2024-01-07T13:23:31;11.38;;;5.95;;
48791;SDS011;34587;48.816;9.420;2024-01-07T13:25:57;9.50;;;5.72;;
48791;SDS011;34587;48.816;9.420;2024-01-07T13:28:23;10.57;;;6.20;;
48791;SDS011;34587;48.816;9.420;2024-01-07T13:30:48;14.93;;;6.70;;
48791;SDS011;34587;48.816;9.420;2024-01-07T13:33:13;10.93;;;6.18;;
48791;SDS011;34587;48.816;9.420;2024-01-07T13:35:41;13.77;;;7.78;;
48791;SDS011;34587;48.816;9.420;2024-01-07T13:38:07;13.95;;;6.55;;
48791;SDS011;34587;48.816;9.420;2024-01-07T13:40:32;13.10;;;7.57;;
48791;SDS011;34587;48.816;9.420;2024-01-07T13:42:57;10.18;;;6.85;;
48791;SDS011;34587;48.816;9.420;2024-01-07T13:45:23;87.03;;;19.02;;
48791;SDS011;34587;48.816;9.420;2024-01-07T13:47:48;14.23;;;8.02;;
48791;SDS011;34587;48.816;9.420;2024-01-07T13:50:14;14.93;;;7.40;;
48791;SDS011;34587;48.816;9.420;2024-01-07T13:52:39;19.27;;;8.63;;
48791;SDS011;34587;48.816;9.420;2024-01-07T13:55:06;15.48;;;7.00;;
48791;SDS011;34587;48.816;9.420;2024-01-07T13:57:34;11.68;;;6.68;;
48791;SDS011;34587;48.816;9.420;2024-01-07T14:00:00;12.15;;;6.93;;
48791;SDS011;34587;48.816;9.420;2024-01-07T14:02:27;12.40;;;6.20;;
48791;SDS011;34587;48.816;9.420;2024-01-07T14:04:52;17.02;;;7.85;;
48791;SDS011;34587;48.816;9.420;2024-01-07T14:07:17;18.30;;;8.38;;
48791;SDS011;34587;48.816;9.420;2024-01-07T14:09:43;15.98;;;8.05;;
48791;SDS011;34587;48.816;9.420;2024-01-07T14:12:08;16.83;;;7.22;;
48791;SDS011;34587;48.816;9.420;2024-01-07T14:14:33;12.07;;;7.25;;
48791;SDS011;34587;48.816;9.420;2024-01-07T14:16:59;13.35;;;7.28;;
48791;SDS011;34587;48.816;9.420;2024-01-07T14:19:24;11.40;;;7.13;;
48791;SDS011;34587;48.816;9.420;2024-01-07T14:21:49;15.07;;;7.18;;
48791;SDS011;34587;48.816;9.420;2024-01-07T14:24:14;11.07;;;6.50;;
48791;SDS011;34587;48.816;9.420;2024-01-07T14:26:40;12.85;;;6.72;;
48791;SDS011;34587;48.816;9.420;2024-01-07T14:29:05;12.27;;;6.55;;
48791;SDS011;34587;48.816;9.420;2024-01-07T14:31:30;14.73;;;6.22;;
48791;SDS011;34587;48.816;9.420;2024-01-07T14:33:56;14.55;;;6.22;;
48791;SDS011;34587;48.816;9.420;2024-01-07T14:36:21;16.85;;;5.95;;
48791;SDS011;34587;48.816;9.420;2024-01-07T14:38:47;12.38;;;6.07;;
48791;SDS011;34587;48.816;9.420;2024-01-07T14:41:13;11.52;;;6.47;;
48791;SDS011;34587;48.816;9.420;2024-01-07T14:43:39;11.10;;;6.63;;
48791;SDS011;34587;48.816;9.420;2024-01-07T14:46:06;14.23;;;6.55;;
48791;SDS011;34587;48.816;9.420;2024-01-07T14:48:35;11.63;;;6.55;;
48791;SDS011;34587;48.816;9.420;2024-01-07T14:51:00;12.85;;;6.65;;
48791;SDS011;34587;48.816;9.420;2024-01-07T14:53:26;21.45;;;8.57;;
48791;SDS011;34587;48.816;9.420;2024-01-07T14:55:53;11.27;;;5.82;;
48791;SDS011;34587;48.816;9.420;2024-01-07T14:58:19;13.02;;;7.05;;
48791;SDS011;34587;48.816;9.420;2024-01-07T15:00:46;7.95;;;5.78;;
48791;SDS011;34587;48.816;9.420;2024-01-07T15:03:11;11.05;;;5.90;;
48791;SDS011;34587;48.816;9.420;2024-01-07T15:05:37;10.27;;;5.20;;
48791;SDS011;34587;48.816;9.420;2024-01-07T15:08:03;7.85;;;4.70;;
48791;SDS011;34587;48.816;9.420;2024-01-07T15:10:29;8.57;;;5.20;;
48791;SDS011;34587;48.816;9.420;2024-01-07T15:12:54;7.75;;;4.85;;
48791;SDS011;34587;48.816;9.420;2024-01-07T15:15:19;9.02;;;5.82;;
48791;SDS011;34587;48.816;9.420;2024-01-07T15:17:47;9.05;;;5.15;;
48791;SDS011;34587;48.816;9.420;2024-01-07T15:20:12;8.93;;;5.22;;
48791;SDS011;34587;48.816;9.420;2024-01-07T15:22:38;8.13;;;4.80;;
48791;SDS011;34587;48.816;9.420;2024-01-07T15:25:03;8.50;;;5.35;;
48791;SDS011;34587;48.816;9.420;2024-01-07T15:27:29;10.35;;;5.28;;
48791;SDS011;34587;48.816;9.420;2024-01-07T15:29:55;8.45;;;5.53;;
48791;SDS011;34587;48.816;9.420;2024-01-07T15:32:21;13.45;;;5.30;;
48791;SDS011;34587;48.816;9.420;2024-01-07T15:34:46;9.60;;;5.82;;
48791;SDS011;34587;48.816;9.420;2024-01-07T15:37:11;9.88;;;4.75;;
48791;SDS011;34587;48.816;9.420;2024-01-07T15:39:37;8.88;;;4.95;;
48791;SDS011;34587;48.816;9.420;2024-01-07T15:42:02;7.57;;;5.45;;
48791;SDS011;34587;48.816;9.420;2024-01-07T15:44:27;13.80;;;6.00;;
48791;SDS011;34587;48.816;9.420;2024-01-07T15:46:53;10.50;;;5.85;;
48791;SDS011;34587;48.816;9.420;2024-01-07T15:49:18;12.65;;;6.15;;
48791;SDS011;34587;48.816;9.420;2024-01-07T15:51:43;11.68;;;6.18;;
48791;SDS011;34587;48.816;9.420;2024-01-07T15:54:09;8.55;;;5.68;;
48791;SDS011;34587;48.816;9.420;2024-01-07T15:56:34;11.35;;;4.95;;
48791;SDS011;34587;48.816;9.420;2024-01-07T15:59:01;10.80;;;6.30;;
48791;SDS011;34587;48.816;9.420;2024-01-07T16:01:26;14.38;;;6.50;;
48791;SDS011;34587;48.816;9.420;2024-01-07T16:03:51;9.07;;;6.10;;
48791;SDS011;34587;48.816;9.420;2024-01-07T16:06:17;13.75;;;6.63;;
48791;SDS011;34587;48.816;9.420;2024-01-07T16:08:42;12.05;;;6.35;;
48791;SDS011;34587;48.816;9.420;2024-01-07T16:11:07;17.50;;;7.47;;
48791;SDS011;34587;48.816;9.420;2024-01-07T16:13:33;9.98;;;5.82;;
48791;SDS011;34587;48.816;9.420;2024-01-07T16:15:58;16.00;;;7.72;;
48791;SDS011;34587;48.816;9.420;2024-01-07T16:18:24;20.67;;;7.70;;
48791;SDS011;34587;48.816;9.420;2024-01-07T16:20:49;34.35;;;13.98;;
48791;SDS011;34587;48.816;9.420;2024-01-07T16:23:14;20.60;;;10.60;;
48791;SDS011;34587;48.816;9.420;2024-01-07T16:25:40;16.00;;;7.20;;
48791;SDS011;34587;48.816;9.420;2024-01-07T16:28:05;8.57;;;5.68;;
48791;SDS011;34587;48.816;9.420;2024-01-07T16:30:32;11.00;;;6.40;;
48791;SDS011;34587;48.816;9.420;2024-01-07T16:32:57;17.50;;;8.95;;
48791;SDS011;34587;48.816;9.420;2024-01-07T16:35:23;11.45;;;5.68;;
48791;SDS011;34587;48.816;9.420;2024-01-07T16:37:48;7.70;;;4.35;;
48791;SDS011;34587;48.816;9.420;2024-01-07T16:40:14;6.50;;;4.22;;
48791;SDS011;34587;48.816;9.420;2024-01-07T16:42:40;8.10;;;4.32;;
48791;SDS011;34587;48.816;9.420;2024-01-07T16:45:08;7.95;;;3.78;;
48791;SDS011;34587;48.816;9.420;2024-01-07T16:47:34;14.70;;;7.18;;
48791;SDS011;34587;48.816;9.420;2024-01-07T16:50:00;60.53;;;15.02;;
48791;SDS011;34587;48.816;9.420;2024-01-07T16:52:25;13.38;;;6.35;;
48791;SDS011;34587;48.816;9.420;2024-01-07T16:54:50;24.60;;;8.38;;
48791;SDS011;34587;48.816;9.420;2024-01-07T16:57:16;7.47;;;4.10;;
48791;SDS011;34587;48.816;9.420;2024-01-07T16:59:41;20.55;;;6.55;;
48791;SDS011;34587;48.816;9.420;2024-01-07T17:02:07;25.23;;;8.63;;
48791;SDS011;34587;48.816;9.420;2024-01-07T17:04:33;15.93;;;6.55;;
48791;SDS011;34587;48.816;9.420;2024-01-07T17:07:00;9.90;;;4.88;;
48791;SDS011;34587;48.816;9.420;2024-01-07T17:09:25;7.43;;;4.22;;
48791;SDS011;34587;48.816;9.420;2024-01-07T17:11:51;6.53;;;4.00;;
48791;SDS011;34587;48.816;9.420;2024-01-07T17:14:16;6.72;;;4.20;;
48791;SDS011;34587;48.816;9.420;2024-01-07T17:16:41;7.43;;;3.65;;
48791;SDS011;34587;48.816;9.420;2024-01-07T17:19:07;7.15;;;4.07;;
48791;SDS011;34587;48.816;9.420;2024-01-07T17:21:34;8.13;;;4.75;;
48791;SDS011;34587;48.816;9.420;2024-01-07T17:24:00;9.50;;;5.20;;
48791;SDS011;34587;48.816;9.420;2024-01-07T17:26:25;8.90;;;4.90;;
48791;SDS011;34587;48.816;9.420;2024-01-07T17:28:50;5.25;;;3.92;;
48791;SDS011;34587;48.816;9.420;2024-01-07T17:31:16;10.30;;;4.38;;
48791;SDS011;34587;48.816;9.420;2024-01-07T17:33:41;11.32;;;4.82;;
48791;SDS011;34587;48.816;9.420;2024-01-07T17:36:06;12.13;;;5.50;;
48791;SDS011;34587;48.816;9.420;2024-01-07T17:38:32;7.95;;;4.25;;
48791;SDS011;34587;48.816;9.420;2024-01-07T17:40:57;5.18;;;3.42;;
48791;SDS011;34587;48.816;9.420;2024-01-07T17:43:23;9.02;;;3.15;;
48791;SDS011;34587;48.816;9.420;2024-01-07T17:45:48;10.05;;;4.60;;
48791;SDS011;34587;48.816;9.420;2024-01-07T17:48:15;10.27;;;4.20;;
48791;SDS011;34587;48.816;9.420;2024-01-07T17:50:41;10.93;;;5.03;;
48791;SDS011;34587;48.816;9.420;2024-01-07T17:53:09;4.40;;;3.75;;
48791;SDS011;34587;48.816;9.420;2024-01-07T17:55:37;9.75;;;5.00;;
48791;SDS011;34587;48.816;9.420;2024-01-07T17:58:02;7.85;;;4.32;;
48791;SDS011;34587;48.816;9.420;2024-01-07T18:00:28;7.70;;;4.43;;
48791;SDS011;34587;48.816;9.420;2024-01-07T18:02:54;8.90;;;4.13;;
48791;SDS011;34587;48.816;9.420;2024-01-07T18:05:19;7.40;;;4.53;;
48791;SDS011;34587;48.816;9.420;2024-01-07T18:07:44;8.90;;;4.95;;
48791;SDS011;34587;48.816;9.420;2024-01-07T18:10:10;7.53;;;4.55;;
48791;SDS011;34587;48.816;9.420;2024-01-07T18:12:36;7.20;;;4.00;;
48791;SDS011;34587;48.816;9.420;2024-01-07T18:15:02;7.47;;;4.05;;
48791;SDS011;34587;48.816;9.420;2024-01-07T18:17:29;9.10;;;4.45;;
48791;SDS011;34587;48.816;9.420;2024-01-07T18:19:54;5.53;;;4.07;;
48791;SDS011;34587;48.816;9.420;2024-01-07T18:22:20;8.43;;;4.82;;
48791;SDS011;34587;48.816;9.420;2024-01-07T18:24:45;37.78;;;9.98;;
48791;SDS011;34587;48.816;9.420;2024-01-07T18:27:12;21.67;;;8.48;;
48791;SDS011;34587;48.816;9.420;2024-01-07T18:29:37;11.07;;;6.05;;
48791;SDS011;34587;48.816;9.420;2024-01-07T18:32:03;14.07;;;5.50;;
48791;SDS011;34587;48.816;9.420;2024-01-07T18:34:29;19.10;;;5.80;;
48791;SDS011;34587;48.816;9.420;2024-01-07T18:36:54;19.42;;;6.85;;
48791;SDS011;34587;48.816;9.420;2024-01-07T18:39:20;10.27;;;5.65;;
48791;SDS011;34587;48.816;9.420;2024-01-07T18:41:46;15.20;;;4.88;;
48791;SDS011;34587;48.816;9.420;2024-01-07T18:44:11;9.35;;;3.88;;
48791;SDS011;34587;48.816;9.420;2024-01-07T18:46:37;6.07;;;4.18;;
48791;SDS011;34587;48.816;9.420;2024-01-07T18:49:03;14.40;;;4.70;;
48791;SDS011;34587;48.816;9.420;2024-01-07T18:51:28;5.75;;;3.85;;
48791;SDS011;34587;48.816;9.420;2024-01-07T18:53:55;5.50;;;4.25;;
48791;SDS011;34587;48.816;9.420;2024-01-07T18:56:21;7.07;;;4.32;;
48791;SDS011;34587;48.816;9.420;2024-01-07T18:58:47;8.60;;;4.88;;
48791;SDS011;34587;48.816;9.420;2024-01-07T19:01:12;9.32;;;6.07;;
48791;SDS011;34587;48.816;9.420;2024-01-07T19:03:38;6.22;;;4.93;;
48791;SDS011;34587;48.816;9.420;2024-01-07T19:06:03;6.60;;;3.80;;
48791;SDS011;34587;48.816;9.420;2024-01-07T19:08:28;14.32;;;5.43;;
48791;SDS011;34587;48.816;9.420;2024-01-07T19:10:54;10.60;;;4.75;;
48791;SDS011;34587;48.816;9.420;2024-01-07T19:13:19;9.48;;;5.38;;
48791;SDS011;34587;48.816;9.420;2024-01-07T19:15:45;7.32;;;5.47;;
48791;SDS011;34587;48.816;9.420;2024-01-07T19:18:11;10.13;;;4.45;;
48791;SDS011;34587;48.816;9.420;2024-01-07T19:20:37;8.02;;;5.50;;
48791;SDS011;34587;48.816;9.420;2024-01-07T19:23:02;9.98;;;5.47;;
48791;SDS011;34587;48.816;9.420;2024-01-07T19:25:30;10.93;;;6.35;;
48791;SDS011;34587;48.816;9.420;2024-01-07T19:27:55;7.63;;;5.10;;
48791;SDS011;34587;48.816;9.420;2024-01-07T19:30:22;12.10;;;5.72;;